Main page
METAR-TAF:

METAR-TAF

Airports :

Cotonou, Benin

Cadjehoun Airport

latitude: 06-21N, longitude: 002-23E, elevation: 5 m

Current weather observation

The report was made 30 minutes ago, at 13:00 UTC
Wind 11 kt from the South
Temperature 33°C
Humidity 67%
Pressure 1010 hPa
Visibility 10 km or more
Scattered clouds at a height of 1300 ft
Few clouds at a height of 2200 ft, Towering cumulus.

METAR: DBBB 291300Z 19011KT 9999 SCT013 FEW022TCU 33/26 Q1010 NOSIG

Time: 14:30 (13:30 UTC)

Forecast

The report was made 2 hours and 30 minutes ago, at 11:00 UTC
Forecast valid from 29 at 12 UTC to 30 at 18 UTC
Wind 10 kt from the Southwest
Visibility 10 km or more
Scattered clouds at a height of 1200 ft
Temporary
from 29 at 13 UTC to 29 at 19 UTC
Broken clouds at a height of 1200 ft
Few clouds at a height of 2300 ft, Cumulonimbus.
thunderstorm

TAF: DBBB 291100Z 2912/3018 22010KT 9999 SCT012 TEMPO 2913/2919 TS BKN012 FEW023CB

Weather observations and forecasts of more than 4000 airports (METAR and TAF reports).

The available stations are represented by yellow and red dots on the map.

Hover mouse over dot to see the name of the station.

Then click to see weather observations and forecasts.

To change the map : click on the green buttons with a black cross to zoom in, on the green button with a dash to zoom out, or on the green arrows for adjacent maps.


METAR-TAF: